Time;durP1;ratioP1;P1;durP2;ratioP2;P2;SDS_P1;SDS_P2;PMS_P1;PMS_P2;Temp;Humidity;BMP_temperature;BMP_pressure;BME280_temperature;BME280_humidity;BME280_pressure;Samples;Min_cycle;Max_cycle;Signal;HPM_P1;HPM_P2
2022/10/04 00:02:13;;;;;;;8.40;5.05;;;13.20;99.90;;;;;;5044527;28;20032;-63
2022/10/04 00:04:38;;;;;;;7.78;4.57;;;13.10;99.90;;;;;;5048582;28;20025;-62
2022/10/04 00:07:17;;;;;;;6.03;4.70;;;13.10;99.90;;;;;;5057688;28;20025;-62
2022/10/04 00:09:49;;;;;;;6.95;3.55;;;13.10;99.90;;;;;;5045026;28;20029;-63
2022/10/04 00:12:29;;;;;;;4.72;3.90;;;13.20;99.90;;;;;;5045826;28;20469;-63
2022/10/04 00:14:58;;;;;;;7.03;3.45;;;13.20;99.90;;;;;;5046866;28;20029;-62
2022/10/04 00:17:29;;;;;;;4.33;2.60;;;13.20;99.90;;;;;;5048235;28;20017;-62
2022/10/04 00:19:55;;;;;;;5.90;3.42;;;13.20;99.90;;;;;;5045933;28;20026;-63
2022/10/04 00:22:29;;;;;;;7.95;3.17;;;13.20;99.90;;;;;;5046950;28;20105;-63
2022/10/04 00:25:16;;;;;;;5.03;3.13;;;13.20;99.90;;;;;;5044914;28;20107;-63
2022/10/04 00:28:13;;;;;;;5.57;2.85;;;13.20;99.90;;;;;;5039585;28;20021;-63
2022/10/04 00:30:39;;;;;;;5.63;2.97;;;13.20;99.90;;;;;;5047155;28;20079;-63
2022/10/04 00:33:05;;;;;;;6.32;3.60;;;13.20;99.90;;;;;;5046983;28;20488;-63
2022/10/04 00:35:31;;;;;;;6.55;3.05;;;13.20;99.90;;;;;;5046757;28;20428;-63
2022/10/04 00:38:05;;;;;;;6.05;4.35;;;13.20;99.90;;;;;;5048362;28;20025;-63
2022/10/04 00:40:56;;;;;;;8.20;5.40;;;13.20;99.90;;;;;;5059574;28;20029;-63
2022/10/04 00:43:39;;;;;;;9.15;4.90;;;13.10;99.90;;;;;;5054930;28;20045;-62
2022/10/04 00:46:21;;;;;;;10.13;5.80;;;13.00;99.90;;;;;;5045364;28;20068;-62
2022/10/04 00:48:55;;;;;;;10.38;5.90;;;12.90;99.90;;;;;;5048373;28;20504;-62
2022/10/04 00:51:23;;;;;;;11.55;5.35;;;12.80;99.90;;;;;;5044352;28;20175;-62
2022/10/04 00:53:51;;;;;;;7.97;5.45;;;12.80;99.90;;;;;;5044346;28;20354;-62
2022/10/04 00:56:49;;;;;;;10.05;6.55;;;12.80;99.90;;;;;;5044265;28;20033;-63
2022/10/04 00:59:25;;;;;;;9.77;6.55;;;12.70;99.90;;;;;;5039940;28;20124;-62
2022/10/04 01:01:59;;;;;;;12.48;6.80;;;12.60;99.90;;;;;;5047136;28;20028;-63
2022/10/04 01:04:59;;;;;;;11.25;6.85;;;12.60;99.90;;;;;;5050558;28;20506;-62
2022/10/04 01:07:30;;;;;;;;;;;12.60;99.90;;;;;;5051342;28;20092;-64
2022/10/04 01:10:06;;;;;;;7.70;5.00;;;12.50;99.90;;;;;;5047432;28;20489;-63
2022/10/04 01:12:50;;;;;;;9.77;5.20;;;12.50;99.90;;;;;;5050194;28;20033;-62
2022/10/04 01:15:21;;;;;;;8.88;6.22;;;12.50;99.90;;;;;;5050236;28;20055;-63
2022/10/04 01:18:07;;;;;;;14.60;7.32;;;12.50;99.90;;;;;;5044429;28;20079;-62
2022/10/04 01:20:36;;;;;;;12.85;7.80;;;12.50;99.90;;;;;;5047883;28;20035;-63
2022/10/04 01:23:02;;;;;;;;;;;12.50;99.90;;;;;;5051230;28;20572;-62
2022/10/04 01:25:49;;;;;;;12.18;8.38;;;12.40;99.90;;;;;;5048508;28;19944;-63
2022/10/04 01:28:15;;;;;;;13.00;8.57;;;12.30;99.90;;;;;;5050957;28;20512;-62
2022/10/04 01:30:42;;;;;;;13.27;8.82;;;12.30;99.90;;;;;;5049478;28;20055;-62
2022/10/04 01:33:07;;;;;;;13.50;8.77;;;12.30;99.90;;;;;;5044797;28;20516;-62
2022/10/04 01:35:34;;;;;;;11.20;8.27;;;12.30;99.90;;;;;;5050791;28;20041;-63
2022/10/04 01:38:06;;;;;;;11.55;8.48;;;12.30;99.90;;;;;;5047446;28;20017;-62
2022/10/04 01:40:47;;;;;;;13.02;7.47;;;12.30;99.90;;;;;;5047544;28;20036;-63
2022/10/04 01:43:18;;;;;;;7.93;6.40;;;12.30;99.90;;;;;;5043666;28;20076;-63
2022/10/04 01:45:53;;;;;;;10.18;7.25;;;12.30;99.90;;;;;;5035893;28;20059;-63
2022/10/04 01:48:23;;;;;;;11.95;8.38;;;12.30;99.90;;;;;;5037657;28;20013;-63
2022/10/04 01:50:58;;;;;;;13.05;9.45;;;12.40;99.90;;;;;;5046103;28;20014;-62
2022/10/04 01:53:29;;;;;;;13.40;8.82;;;12.30;99.90;;;;;;5049063;28;20033;-63
2022/10/04 01:56:09;;;;;;;14.82;9.65;;;12.30;99.90;;;;;;5047948;28;20053;-63
2022/10/04 01:58:45;;;;;;;12.38;9.02;;;12.30;99.90;;;;;;5040297;28;20034;-62
2022/10/04 02:01:22;;;;;;;10.88;8.90;;;12.20;99.90;;;;;;5045151;28;20025;-63
2022/10/04 02:03:58;;;;;;;15.80;9.07;;;12.10;99.90;;;;;;5044566;28;20021;-62
2022/10/04 02:06:24;;;;;;;13.75;8.80;;;12.10;99.90;;;;;;5032107;28;20022;-63
2022/10/04 02:08:56;;;;;;;17.13;10.18;;;12.00;99.90;;;;;;5048472;28;20025;-63
2022/10/04 02:11:23;;;;;;;14.52;10.15;;;11.90;99.90;;;;;;5045550;28;20017;-62
2022/10/04 02:13:52;;;;;;;18.98;10.80;;;11.90;99.90;;;;;;5061542;28;20057;-63
2022/10/04 02:16:20;;;;;;;14.10;10.17;;;11.90;99.90;;;;;;5041887;28;20035;-62
2022/10/04 02:18:46;;;;;;;14.93;10.27;;;11.80;99.90;;;;;;5047087;28;20260;-62
2022/10/04 02:21:14;;;;;;;20.02;11.48;;;11.90;99.90;;;;;;5045049;28;20033;-62
2022/10/04 02:23:41;;;;;;;16.50;11.13;;;11.80;99.90;;;;;;5048776;28;20481;-62
2022/10/04 02:26:10;;;;;;;16.75;9.82;;;11.80;99.90;;;;;;5052354;28;20057;-63
2022/10/04 02:28:37;;;;;;;17.33;9.02;;;11.90;99.90;;;;;;5045890;28;20028;-62
2022/10/04 02:33:51;;;;;;;12.50;9.13;;;11.90;99.90;;;;;;5044455;28;20055;-62
2022/10/04 02:36:18;;;;;;;14.10;9.65;;;11.90;99.90;;;;;;5047147;28;20104;-63
2022/10/04 02:39:03;;;;;;;12.45;9.98;;;11.90;99.90;;;;;;5047067;28;20564;-62
2022/10/04 02:41:35;;;;;;;14.82;9.95;;;11.80;99.90;;;;;;5043673;28;20036;-62
2022/10/04 02:44:25;;;;;;;16.42;10.15;;;11.80;99.90;;;;;;5048802;28;20017;-63
2022/10/04 02:47:16;;;;;;;16.17;9.38;;;11.70;99.90;;;;;;5046008;28;20025;-62
2022/10/04 02:49:54;;;;;;;13.35;9.27;;;11.70;99.90;;;;;;5048363;28;20499;-62
2022/10/04 02:52:29;;;;;;;14.45;10.00;;;11.60;99.90;;;;;;5063033;28;20025;-62
2022/10/04 02:55:01;;;;;;;13.55;9.85;;;11.60;99.90;;;;;;5043719;28;20025;-62
2022/10/04 02:57:29;;;;;;;11.27;9.05;;;11.60;99.90;;;;;;5043629;28;20014;-62
2022/10/04 03:00:09;;;;;;;15.50;10.30;;;11.50;99.90;;;;;;5042143;28;20021;-62
2022/10/04 03:02:35;;;;;;;;;;;11.60;99.90;;;;;;5047055;28;20060;-62
2022/10/04 03:05:08;;;;;;;15.88;10.27;;;11.40;99.90;;;;;;5044148;28;19947;-63
2022/10/04 03:07:35;;;;;;;17.60;10.30;;;11.40;99.90;;;;;;5035407;28;20048;-62
2022/10/04 03:10:06;;;;;;;12.68;9.30;;;11.40;99.90;;;;;;5041825;28;20032;-62
2022/10/04 03:12:32;;;;;;;17.05;10.57;;;11.40;99.90;;;;;;5041592;28;20029;-62
2022/10/04 03:14:59;;;;;;;13.18;10.48;;;11.30;99.90;;;;;;5042416;28;20516;-62
2022/10/04 03:17:24;;;;;;;18.45;10.63;;;11.30;99.90;;;;;;5041197;28;20042;-63
2022/10/04 03:19:50;;;;;;;15.77;10.13;;;11.30;99.90;;;;;;5047089;28;20388;-62
2022/10/04 03:22:17;;;;;;;15.50;10.68;;;11.40;99.90;;;;;;5046506;28;20067;-62
2022/10/04 03:24:49;;;;;;;17.38;10.80;;;11.30;99.90;;;;;;5038404;28;20021;-62
2022/10/04 03:27:19;;;;;;;16.27;11.25;;;11.30;99.90;;;;;;5040198;28;20060;-62
2022/10/04 03:29:45;;;;;;;17.30;11.55;;;11.30;99.90;;;;;;5046986;28;20060;-62
2022/10/04 03:32:14;;;;;;;17.65;10.77;;;11.30;99.90;;;;;;5044351;28;20024;-62
2022/10/04 03:34:45;;;;;;;14.82;11.27;;;11.20;99.90;;;;;;5038490;28;20376;-63
2022/10/04 03:37:15;;;;;;;15.68;11.90;;;11.10;99.90;;;;;;5031898;28;20460;-63
2022/10/04 03:39:49;;;;;;;16.00;12.10;;;11.10;99.90;;;;;;5046575;28;20029;-63
2022/10/04 03:42:19;;;;;;;19.65;11.93;;;11.10;99.90;;;;;;5039688;28;20489;-62
2022/10/04 03:44:46;;;;;;;17.40;12.25;;;11.00;99.90;;;;;;5045510;28;20057;-62
2022/10/04 03:47:21;;;;;;;19.65;12.15;;;11.00;99.90;;;;;;5046269;28;20108;-63
2022/10/04 03:49:48;;;;;;;18.98;12.63;;;11.00;99.90;;;;;;5055201;28;20428;-62
2022/10/04 03:52:23;;;;;;;19.35;12.23;;;10.90;99.90;;;;;;5040140;28;20024;-63
2022/10/04 03:54:52;;;;;;;16.02;12.57;;;10.90;99.90;;;;;;5039427;28;20438;-62
2022/10/04 03:57:18;;;;;;;19.95;12.45;;;10.80;99.90;;;;;;5045655;28;20029;-64
2022/10/04 03:59:44;;;;;;;16.13;11.73;;;10.80;99.90;;;;;;5047974;28;20036;-62
2022/10/04 04:02:16;;;;;;;18.55;13.40;;;10.80;99.90;;;;;;5041226;28;20021;-62
2022/10/04 04:04:47;;;;;;;20.42;12.45;;;10.80;99.90;;;;;;5052934;28;20029;-63
2022/10/04 04:07:38;;;;;;;15.20;11.65;;;10.80;99.90;;;;;;5041597;28;20021;-62
2022/10/04 04:10:16;;;;;;;17.70;12.07;;;10.80;99.90;;;;;;5045950;28;20427;-62
2022/10/04 04:12:49;;;;;;;17.33;11.40;;;10.80;99.90;;;;;;5032467;28;20050;-62
2022/10/04 04:15:15;;;;;;;18.30;12.75;;;10.80;99.90;;;;;;5044806;28;20541;-62
2022/10/04 04:17:51;;;;;;;17.30;12.07;;;10.70;99.90;;;;;;5036736;28;20029;-62
2022/10/04 04:20:32;;;;;;;16.20;12.50;;;10.70;99.90;;;;;;5042349;28;20038;-62
2022/10/04 04:23:13;;;;;;;18.75;11.82;;;10.70;99.90;;;;;;5044358;28;20049;-62
2022/10/04 04:25:52;;;;;;;15.43;11.27;;;10.60;99.90;;;;;;5039598;28;20444;-63
2022/10/04 04:28:26;;;;;;;19.55;12.40;;;10.60;99.90;;;;;;5040287;28;20017;-62
2022/10/04 04:31:20;;;;;;;17.00;12.25;;;10.60;99.90;;;;;;5060323;28;20070;-62
2022/10/04 04:33:50;;;;;;;16.33;12.07;;;10.60;99.90;;;;;;5049111;28;20504;-63
2022/10/04 04:36:16;;;;;;;;;;;10.50;99.90;;;;;;5044343;28;20025;-63
2022/10/04 04:41:30;;;;;;;19.13;12.48;;;10.40;99.90;;;;;;5045088;28;20444;-62
2022/10/04 04:43:56;;;;;;;18.20;13.23;;;10.40;99.90;;;;;;5046137;28;20021;-62
2022/10/04 04:46:22;;;;;;;17.77;12.48;;;10.30;99.90;;;;;;5042669;28;20117;-62
2022/10/04 04:48:51;;;;;;;17.45;12.73;;;10.30;99.90;;;;;;5045137;28;20831;-62
2022/10/04 04:51:22;;;;;;;15.07;12.57;;;10.20;99.90;;;;;;5045249;28;20029;-62
2022/10/04 04:53:49;;;;;;;16.80;12.90;;;10.30;99.90;;;;;;5044954;28;20033;-62
2022/10/04 04:56:22;;;;;;;20.33;12.98;;;10.20;99.90;;;;;;5049250;28;20056;-62
2022/10/04 04:59:03;;;;;;;18.33;12.55;;;10.20;99.90;;;;;;5042539;28;20100;-62
2022/10/04 05:01:49;;;;;;;20.35;13.77;;;10.20;99.90;;;;;;5048639;28;20415;-62
2022/10/04 05:04:17;;;;;;;15.18;12.75;;;10.20;99.90;;;;;;5039970;28;20516;-62
2022/10/04 05:06:47;;;;;;;18.30;13.52;;;10.20;99.90;;;;;;5038305;28;20025;-62
2022/10/04 05:09:26;;;;;;;17.33;13.18;;;10.20;99.90;;;;;;5046347;28;20049;-62
2022/10/04 05:11:55;;;;;;;20.52;13.52;;;10.10;99.90;;;;;;5046342;28;20021;-62
2022/10/04 05:14:21;;;;;;;17.75;12.60;;;10.10;99.90;;;;;;5047380;28;20021;-62
2022/10/04 05:16:54;;;;;;;18.48;13.27;;;10.00;99.90;;;;;;5053042;28;20377;-62
2022/10/04 05:19:33;;;;;;;23.27;14.05;;;10.00;99.90;;;;;;5042677;28;20465;-62
2022/10/04 05:22:05;;;;;;;20.47;13.50;;;10.00;99.90;;;;;;5048902;28;20074;-62
2022/10/04 05:24:38;;;;;;;18.02;13.60;;;9.90;99.90;;;;;;5052839;28;20393;-62
2022/10/04 05:27:08;;;;;;;19.10;12.95;;;9.90;99.90;;;;;;5043998;28;20013;-62
2022/10/04 05:29:38;;;;;;;17.45;13.27;;;9.90;99.90;;;;;;5054920;28;20017;-62
2022/10/04 05:32:28;;;;;;;18.88;12.65;;;9.90;99.90;;;;;;5054938;28;20048;-62
2022/10/04 05:34:54;;;;;;;20.02;12.45;;;9.90;99.90;;;;;;5052858;28;20065;-62
2022/10/04 05:37:28;;;;;;;17.05;12.55;;;9.90;99.90;;;;;;5054802;28;20480;-62
2022/10/04 05:40:22;;;;;;;18.23;12.10;;;9.90;99.90;;;;;;5050009;28;20079;-62
2022/10/04 05:42:50;;;;;;;22.52;12.88;;;9.80;99.90;;;;;;5052383;28;20125;-62
2022/10/04 05:45:23;;;;;;;20.48;13.20;;;9.80;99.90;;;;;;5054549;28;20021;-62
2022/10/04 05:47:54;;;;;;;17.75;12.57;;;9.80;99.90;;;;;;5054550;28;20032;-62
2022/10/04 05:50:28;;;;;;;17.42;12.35;;;9.80;99.90;;;;;;5054068;28;20021;-62
2022/10/04 05:53:14;;;;;;;21.40;13.85;;;9.80;99.90;;;;;;5040907;28;20163;-62
2022/10/04 05:56:21;;;;;;;18.58;12.95;;;9.80;99.90;;;;;;5051086;28;20512;-62
2022/10/04 05:59:13;;;;;;;17.95;12.05;;;9.70;99.90;;;;;;5010532;28;20072;-62
2022/10/04 06:02:15;;;;;;;21.02;11.75;;;9.70;99.90;;;;;;5045503;28;20125;-62
2022/10/04 06:05:11;;;;;;;20.45;12.48;;;9.70;99.90;;;;;;5048785;28;20037;-62
2022/10/04 06:07:45;;;;;;;23.25;12.75;;;9.70;99.90;;;;;;5054322;28;20025;-62
2022/10/04 06:10:51;;;;;;;18.38;12.13;;;9.70;99.90;;;;;;5050170;28;20028;-62
2022/10/04 06:13:37;;;;;;;18.13;11.48;;;9.70;99.90;;;;;;5052130;28;20027;-62
2022/10/04 06:16:13;;;;;;;18.02;12.82;;;9.70;99.90;;;;;;5060144;28;20081;-62
2022/10/04 06:19:00;;;;;;;17.58;11.93;;;9.70;99.90;;;;;;5055374;28;20079;-62
2022/10/04 06:21:34;;;;;;;18.27;12.38;;;9.70;99.90;;;;;;5052113;28;20059;-62
2022/10/04 06:24:13;;;;;;;16.77;11.93;;;9.80;99.90;;;;;;5052812;28;20017;-62
2022/10/04 06:27:08;;;;;;;15.18;11.90;;;9.90;99.90;;;;;;5051768;28;20017;-62
2022/10/04 06:29:39;;;;;;;21.08;12.55;;;9.90;99.90;;;;;;5031360;28;20029;-62
2022/10/04 06:32:18;;;;;;;20.27;12.27;;;9.90;99.90;;;;;;5050633;28;20021;-62
2022/10/04 06:34:53;;;;;;;17.60;12.48;;;9.90;99.90;;;;;;5049074;28;20017;-62
2022/10/04 06:37:52;;;;;;;19.33;12.35;;;9.90;99.90;;;;;;5053530;28;20091;-62
2022/10/04 06:40:28;;;;;;;15.48;12.25;;;10.00;99.90;;;;;;5036088;28;20029;-62
2022/10/04 06:43:19;;;;;;;20.98;12.57;;;10.00;99.90;;;;;;5050171;28;20041;-62
2022/10/04 06:46:19;;;;;;;19.35;11.27;;;10.00;99.90;;;;;;5046645;28;20029;-62
2022/10/04 06:48:59;;;;;;;16.88;12.20;;;10.10;99.90;;;;;;5050968;28;20027;-62
2022/10/04 06:51:31;;;;;;;18.65;11.38;;;10.20;99.90;;;;;;5054031;28;20082;-62
2022/10/04 06:54:11;;;;;;;17.73;11.73;;;10.20;99.90;;;;;;5052834;28;20025;-62
2022/10/04 06:56:56;;;;;;;16.23;11.27;;;10.30;99.90;;;;;;5053323;28;20033;-62
2022/10/04 07:00:05;;;;;;;12.48;9.48;;;10.40;99.90;;;;;;5062987;28;20025;-62
2022/10/04 07:02:34;;;;;;;15.10;10.38;;;10.40;99.90;;;;;;5041211;28;20091;-62
2022/10/04 07:05:29;;;;;;;15.38;10.05;;;10.50;99.90;;;;;;5048530;28;20388;-62
2022/10/04 07:08:08;;;;;;;18.85;11.02;;;10.50;99.90;;;;;;5054894;28;20396;-62
2022/10/04 07:10:39;;;;;;;12.15;8.75;;;10.60;99.90;;;;;;5051185;28;20017;-62
2022/10/04 07:13:08;;;;;;;14.65;9.73;;;10.60;99.90;;;;;;5047963;28;20025;-62
2022/10/04 07:15:49;;;;;;;18.47;9.80;;;10.70;99.90;;;;;;5051385;28;20066;-62
2022/10/04 07:18:33;;;;;;;13.32;9.30;;;10.70;99.90;;;;;;5047212;28;20029;-62
2022/10/04 07:21:06;;;;;;;14.38;9.43;;;10.70;99.90;;;;;;5046643;28;20105;-62
2022/10/04 07:23:42;;;;;;;13.18;9.98;;;10.70;99.90;;;;;;5049408;28;20037;-62
2022/10/04 07:26:34;;;;;;;17.23;10.02;;;10.80;99.90;;;;;;5051271;28;20017;-62
2022/10/04 07:29:19;;;;;;;14.00;9.20;;;10.80;99.90;;;;;;5050694;28;20013;-62
2022/10/04 07:31:50;;;;;;;14.95;10.15;;;10.90;99.90;;;;;;5033118;28;20048;-62
2022/10/04 07:34:27;;;;;;;13.57;9.80;;;11.00;99.90;;;;;;5051242;28;20056;-62
2022/10/04 07:36:55;;;;;;;13.02;9.45;;;11.10;99.90;;;;;;5050218;28;20024;-62
2022/10/04 07:39:44;;;;;;;13.57;9.07;;;11.20;99.90;;;;;;5049499;28;20508;-62
2022/10/04 07:42:28;;;;;;;14.27;9.38;;;11.20;99.90;;;;;;5049628;28;20519;-62
2022/10/04 07:45:02;;;;;;;13.05;8.70;;;11.30;99.90;;;;;;5051038;28;20085;-62
2022/10/04 07:47:28;;;;;;;12.73;9.07;;;11.40;99.90;;;;;;5050941;28;20013;-62
2022/10/04 07:49:56;;;;;;;13.32;8.93;;;11.40;99.90;;;;;;5049960;28;20017;-62
2022/10/04 07:52:47;;;;;;;12.57;8.45;;;11.50;99.90;;;;;;5050611;28;20085;-62
2022/10/04 07:55:22;;;;;;;15.95;8.60;;;11.50;99.90;;;;;;5050809;28;20454;-62
2022/10/04 07:58:24;;;;;;;11.85;8.90;;;11.60;99.90;;;;;;5048498;28;20103;-62
2022/10/04 08:00:58;;;;;;;12.43;8.10;;;11.60;99.90;;;;;;5050946;28;20021;-62
2022/10/04 08:03:56;;;;;;;14.85;8.43;;;11.60;99.90;;;;;;5044306;28;20032;-62
2022/10/04 08:06:38;;;;;;;9.13;7.22;;;11.70;99.90;;;;;;5040879;28;20104;-62
2022/10/04 08:09:22;;;;;;;13.45;8.95;;;11.80;99.90;;;;;;5037997;28;20025;-62
2022/10/04 08:12:17;;;;;;;15.35;9.55;;;11.90;99.90;;;;;;5055207;28;20020;-62
2022/10/04 08:15:13;;;;;;;14.98;9.05;;;12.10;99.90;;;;;;5047295;28;20032;-62
2022/10/04 08:18:30;;;;;;;16.08;10.45;;;12.10;99.90;;;;;;5047710;28;20025;-62
2022/10/04 08:21:04;;;;;;;14.30;8.80;;;12.20;99.90;;;;;;5008400;28;20048;-62
2022/10/04 08:24:07;;;;;;;15.60;9.32;;;12.30;99.90;;;;;;5054918;28;20045;-62
2022/10/04 08:26:58;;;;;;;13.27;10.10;;;12.50;99.90;;;;;;4995711;28;20084;-62
2022/10/04 08:29:43;;;;;;;14.63;8.95;;;12.60;99.90;;;;;;5052915;28;20809;-62
2022/10/04 08:32:26;;;;;;;11.93;8.88;;;12.70;99.90;;;;;;5052020;28;20404;-62
2022/10/04 08:35:37;;;;;;;14.90;9.07;;;12.80;99.90;;;;;;5056577;28;20055;-63
2022/10/04 08:38:44;;;;;;;14.88;9.35;;;12.90;99.90;;;;;;5028115;28;20033;-62
2022/10/04 08:41:28;;;;;;;15.18;9.77;;;13.00;99.90;;;;;;5027523;28;20025;-62
2022/10/04 08:44:12;;;;;;;11.07;8.85;;;13.10;99.90;;;;;;5056431;28;20094;-62
2022/10/04 08:47:14;;;;;;;12.63;8.80;;;13.20;99.90;;;;;;5056928;28;20017;-62
2022/10/04 08:50:22;;;;;;;15.30;9.55;;;13.20;99.90;;;;;;5055973;28;20438;-62
2022/10/04 08:52:57;;;;;;;11.65;7.80;;;13.40;99.90;;;;;;5055529;28;20059;-62
2022/10/04 08:55:47;;;;;;;17.08;9.20;;;13.40;99.90;;;;;;5056946;28;20028;-62
2022/10/04 08:58:34;;;;;;;10.75;7.43;;;13.50;99.90;;;;;;5057117;28;20031;-62
2022/10/04 09:01:18;;;;;;;10.48;6.97;;;13.60;99.90;;;;;;5054482;28;20031;-62
2022/10/04 09:04:24;;;;;;;13.82;7.63;;;13.70;99.90;;;;;;5055671;28;20104;-62
2022/10/04 09:07:01;;;;;;;13.55;8.57;;;13.80;99.90;;;;;;5055617;28;20024;-63
2022/10/04 09:10:01;;;;;;;12.27;6.82;;;13.90;99.90;;;;;;5055539;28;20013;-62
2022/10/04 09:12:55;;;;;;;14.02;6.93;;;14.00;99.90;;;;;;5056886;28;20021;-62
2022/10/04 09:15:43;;;;;;;10.68;6.20;;;14.10;99.90;;;;;;5054236;28;20086;-62
2022/10/04 09:18:21;;;;;;;14.98;7.90;;;14.20;99.90;;;;;;5053986;28;20021;-62
2022/10/04 09:20:57;;;;;;;11.98;6.82;;;14.30;99.90;;;;;;5055693;28;20021;-63
2022/10/04 09:23:24;;;;;;;10.80;6.28;;;14.40;99.90;;;;;;5053033;28;20045;-62
2022/10/04 09:25:58;;;;;;;10.27;6.90;;;14.40;99.90;;;;;;5053474;28;20074;-62
2022/10/04 09:28:35;;;;;;;11.48;6.22;;;14.60;99.70;;;;;;5051695;28;20107;-63
2022/10/04 09:31:12;;;;;;;12.20;6.78;;;14.60;98.70;;;;;;5053644;28;20056;-63
2022/10/04 09:34:04;;;;;;;10.02;6.40;;;14.70;98.10;;;;;;5053764;28;20021;-62
2022/10/04 09:37:06;;;;;;;11.25;5.82;;;14.70;97.90;;;;;;5051312;28;20043;-62
2022/10/04 09:40:09;;;;;;;14.52;5.68;;;14.80;97.80;;;;;;5054303;28;20035;-62
2022/10/04 09:43:04;;;;;;;8.18;5.63;;;14.90;97.40;;;;;;5052195;28;20045;-63
2022/10/04 09:45:46;;;;;;;12.55;6.05;;;15.10;97.80;;;;;;5052895;28;20029;-62
2022/10/04 09:48:42;;;;;;;10.88;6.07;;;15.30;97.40;;;;;;5053155;28;20020;-62
2022/10/04 09:51:44;;;;;;;8.63;5.30;;;15.50;96.90;;;;;;5050164;28;20485;-62
2022/10/04 09:54:19;;;;;;;10.20;6.07;;;15.60;96.80;;;;;;5033070;28;20065;-62
2022/10/04 09:57:13;;;;;;;9.93;5.22;;;15.80;96.10;;;;;;5052453;28;20389;-63
2022/10/04 09:59:56;;;;;;;13.93;6.28;;;16.00;95.90;;;;;;5066888;28;20067;-63
2022/10/04 10:02:53;;;;;;;8.23;5.88;;;16.20;95.60;;;;;;5052073;28;20037;-63
2022/10/04 10:05:22;;;;;;;10.63;6.15;;;16.30;94.60;;;;;;5046575;28;20025;-63
2022/10/04 10:08:19;;;;;;;9.63;4.90;;;16.40;93.80;;;;;;5054145;28;20032;-63
2022/10/04 10:14:03;;;;;;;13.32;5.85;;;16.90;94.10;;;;;;5050988;28;20056;-63
2022/10/04 10:17:14;;;;;;;5.70;4.38;;;17.10;92.60;;;;;;5052684;28;20025;-63
2022/10/04 10:19:57;;;;;;;9.48;5.15;;;17.50;92.50;;;;;;5051720;28;20400;-63
2022/10/04 10:22:32;;;;;;;10.73;4.80;;;18.60;91.40;;;;;;5050412;28;20104;-63
2022/10/04 10:25:12;;;;;;;7.03;3.53;;;20.60;82.90;;;;;;5066904;28;20500;-64
2022/10/04 10:27:44;;;;;;;8.10;4.78;;;22.00;79.00;;;;;;5044493;28;20043;-63
2022/10/04 10:30:36;;;;;;;5.97;3.28;;;24.20;69.00;;;;;;5044396;28;20024;-63
2022/10/04 10:33:39;;;;;;;8.23;3.20;;;25.80;63.10;;;;;;5052796;28;20033;-63
2022/10/04 10:36:34;;;;;;;8.32;2.90;;;27.90;57.50;;;;;;5049190;28;20104;-63
2022/10/04 10:39:46;;;;;;;5.38;2.83;;;30.30;53.40;;;;;;5052188;28;20017;-63
2022/10/04 10:42:39;;;;;;;5.85;2.70;;;32.00;48.20;;;;;;5005937;28;20245;-63
2022/10/04 10:45:26;;;;;;;4.55;2.15;;;32.70;44.80;;;;;;5046230;28;20018;-63
2022/10/04 10:48:00;;;;;;;6.65;2.65;;;32.50;43.60;;;;;;5041833;28;20021;-63
2022/10/04 10:50:57;;;;;;;4.45;2.45;;;32.20;43.40;;;;;;5044801;28;20116;-63
2022/10/04 10:53:53;;;;;;;5.00;2.35;;;33.30;43.80;;;;;;5048635;28;20021;-63
2022/10/04 10:57:22;;;;;;;6.40;2.53;;;35.30;41.60;;;;;;5051682;28;20017;-63
2022/10/04 11:00:05;;;;;;;3.35;2.05;;;35.90;39.40;;;;;;4984917;28;20085;-63
2022/10/04 11:02:58;;;;;;;4.45;2.50;;;36.70;39.30;;;;;;4974268;28;20081;-63
2022/10/04 11:05:35;;;;;;;5.10;2.20;;;37.40;37.60;;;;;;5046671;28;20833;-64
2022/10/04 11:08:18;;;;;;;4.22;2.03;;;38.30;37.40;;;;;;5049321;28;20013;-64
2022/10/04 11:11:00;;;;;;;4.75;2.15;;;39.50;36.10;;;;;;5050040;28;20016;-64
2022/10/04 11:13:41;;;;;;;2.85;1.60;;;39.80;35.30;;;;;;5050619;28;20021;-64
2022/10/04 11:16:09;;;;;;;5.88;2.58;;;41.10;35.20;;;;;;5065323;28;20025;-64
2022/10/04 11:19:09;;;;;;;4.25;1.90;;;41.40;33.20;;;;;;5050998;28;20021;-64
2022/10/04 11:22:07;;;;;;;4.97;2.60;;;41.90;34.20;;;;;;5052110;28;20567;-64
2022/10/04 11:25:02;;;;;;;3.72;2.67;;;41.30;31.90;;;;;;5023030;28;20042;-64
2022/10/04 11:28:01;;;;;;;4.57;2.70;;;39.50;32.50;;;;;;5037728;28;20545;-64
2022/10/04 11:30:44;;;;;;;4.60;2.70;;;36.80;34.40;;;;;;5014213;28;20126;-64
2022/10/04 11:33:24;;;;;;;3.70;2.45;;;35.20;35.80;;;;;;5039303;28;20021;-64
2022/10/04 11:36:09;;;;;;;4.22;2.83;;;35.20;36.30;;;;;;5044639;28;20022;-64
2022/10/04 11:39:01;;;;;;;4.35;2.22;;;34.80;37.00;;;;;;5046946;28;20517;-64
2022/10/04 11:41:48;;;;;;;5.00;2.00;;;35.70;36.40;;;;;;5040613;28;20060;-64
2022/10/04 11:44:25;;;;;;;3.95;2.10;;;36.40;35.70;;;;;;5035970;28;20033;-63
2022/10/04 11:47:17;;;;;;;6.15;2.30;;;36.30;34.10;;;;;;5042376;28;20397;-63
2022/10/04 11:50:07;;;;;;;4.47;2.00;;;36.10;34.90;;;;;;5056640;28;20389;-63
2022/10/04 11:53:02;;;;;;;5.47;3.05;;;35.50;36.00;;;;;;5052443;28;20473;-63
2022/10/04 11:56:03;;;;;;;4.03;2.40;;;35.00;35.50;;;;;;5049115;28;20017;-63
2022/10/04 11:58:48;;;;;;;4.82;2.78;;;33.00;36.80;;;;;;5046787;28;20025;-63
2022/10/04 12:01:46;;;;;;;4.38;2.38;;;30.60;39.10;;;;;;5052348;28;20029;-63
2022/10/04 12:04:41;;;;;;;;;;;29.10;42.20;;;;;;5040552;28;20412;-63
2022/10/04 12:07:25;;;;;;;4.85;2.22;;;28.50;43.90;;;;;;5029242;28;20358;-63
2022/10/04 12:10:15;;;;;;;6.22;2.15;;;28.10;43.70;;;;;;5047983;28;20376;-63
2022/10/04 12:13:13;;;;;;;3.80;1.85;;;29.10;42.30;;;;;;5052062;28;20017;-63
2022/10/04 12:16:10;;;;;;;3.50;1.95;;;29.40;41.40;;;;;;5037050;28;20468;-63
2022/10/04 12:18:55;;;;;;;5.85;2.78;;;28.70;41.50;;;;;;5033148;28;20029;-63
2022/10/04 12:22:04;;;;;;;5.32;2.47;;;27.90;43.50;;;;;;5046258;28;20017;-63
2022/10/04 12:24:58;;;;;;;6.60;2.85;;;26.90;45.50;;;;;;5048616;28;20389;-63
2022/10/04 12:27:44;;;;;;;5.18;2.60;;;25.90;46.80;;;;;;5032239;28;20021;-63
2022/10/04 12:30:31;;;;;;;3.40;2.00;;;26.30;47.20;;;;;;5032384;28;20048;-63
2022/10/04 12:33:20;;;;;;;3.53;2.40;;;27.30;47.20;;;;;;5049139;28;20033;-63
2022/10/04 12:36:01;;;;;;;4.35;2.10;;;28.10;45.50;;;;;;5049605;28;20075;-63
2022/10/04 12:38:35;;;;;;;4.10;2.30;;;27.90;44.90;;;;;;5041953;28;20021;-63
2022/10/04 12:41:30;;;;;;;4.43;2.42;;;28.50;44.80;;;;;;5038345;28;20017;-63
2022/10/04 12:44:14;;;;;;;5.13;2.20;;;29.50;43.50;;;;;;5048801;28;20400;-63
2022/10/04 12:46:51;;;;;;;4.35;1.80;;;29.20;42.00;;;;;;5051799;28;20036;-63
2022/10/04 12:49:44;;;;;;;4.88;2.30;;;28.40;42.50;;;;;;5062592;28;20109;-63
2022/10/04 12:52:19;;;;;;;3.78;1.52;;;27.20;45.00;;;;;;5047956;28;20014;-63
2022/10/04 12:54:57;;;;;;;4.00;1.55;;;26.10;45.40;;;;;;5050463;28;20105;-63
2022/10/04 12:57:48;;;;;;;5.53;2.15;;;26.40;46.10;;;;;;5066623;28;20025;-63
2022/10/04 13:00:21;;;;;;;2.88;1.45;;;27.90;44.70;;;;;;5053913;28;20029;-63
2022/10/04 13:02:59;;;;;;;3.03;1.58;;;28.60;44.00;;;;;;5055150;28;20033;-63
2022/10/04 13:05:35;;;;;;;3.80;1.90;;;28.70;43.30;;;;;;5036108;28;20029;-63
2022/10/04 13:08:25;;;;;;;3.50;1.83;;;28.70;44.50;;;;;;5064331;28;20049;-63
2022/10/04 13:11:16;;;;;;;5.25;2.35;;;28.70;43.90;;;;;;5055441;28;20021;-63
2022/10/04 13:14:10;;;;;;;4.53;2.28;;;29.00;43.00;;;;;;5055421;28;20036;-63
2022/10/04 13:16:55;;;;;;;3.88;1.58;;;29.20;42.50;;;;;;5051747;28;20106;-63
2022/10/04 13:19:36;;;;;;;3.85;1.65;;;29.40;43.20;;;;;;5051659;28;20028;-63
2022/10/04 13:22:28;;;;;;;4.28;1.90;;;30.20;40.90;;;;;;5041705;28;20036;-63
2022/10/04 13:25:27;;;;;;;4.68;1.95;;;30.50;41.30;;;;;;5050057;28;20029;-63
2022/10/04 13:28:21;;;;;;;5.00;1.88;;;31.20;39.60;;;;;;5050686;28;20451;-63
2022/10/04 13:31:03;;;;;;;4.30;2.30;;;30.50;40.50;;;;;;5046729;28;20032;-63
2022/10/04 13:33:47;;;;;;;5.72;2.47;;;30.00;40.50;;;;;;5059899;28;20029;-63
2022/10/04 13:36:23;;;;;;;4.03;1.83;;;29.30;41.60;;;;;;5050768;28;20032;-63
2022/10/04 13:39:08;;;;;;;2.75;1.10;;;28.80;41.90;;;;;;5046074;28;20028;-63
2022/10/04 13:41:52;;;;;;;1.63;1.08;;;29.40;41.80;;;;;;5051905;28;20544;-63
2022/10/04 13:44:55;;;;;;;4.70;1.38;;;30.70;41.30;;;;;;5053038;28;20025;-63
2022/10/04 13:47:42;;;;;;;3.08;1.27;;;31.70;39.80;;;;;;5052653;28;20082;-63
2022/10/04 13:50:16;;;;;;;4.63;1.40;;;31.70;38.50;;;;;;5046862;28;20017;-63
2022/10/04 13:59:05;;;;;;;2.95;1.30;;;31.50;39.00;;;;;;5054023;28;20116;-63
2022/10/04 14:01:53;;;;;;;3.38;1.65;;;31.10;39.60;;;;;;5047345;28;20017;-63
2022/10/04 14:04:35;;;;;;;3.85;1.63;;;30.30;41.00;;;;;;5038008;28;20100;-63